createdAt,value
2018-11-29T00:00:01.005Z,21.00
2018-11-29T00:02:44.055Z,22.43
2018-11-29T00:05:44.893Z,20.33
2018-11-29T00:08:34.467Z,21.33
2018-11-29T00:11:15.651Z,22.57
2018-11-29T00:13:56.845Z,20.00
2018-11-29T00:16:38.395Z,20.53
2018-11-29T00:19:20.468Z,21.20
2018-11-29T00:22:01.673Z,21.17
2018-11-29T00:24:43.536Z,20.23
2018-11-29T00:27:25.233Z,20.77
2018-11-29T00:30:12.999Z,19.47
2018-11-29T00:32:55.937Z,19.10
2018-11-29T00:35:37.665Z,20.13
2018-11-29T00:38:20.352Z,18.97
2018-11-29T00:41:01.722Z,18.40
2018-11-29T00:43:43.227Z,18.37
2018-11-29T00:46:24.462Z,17.73
2018-11-29T00:49:06.502Z,17.70
2018-11-29T00:51:48.750Z,17.07
2018-11-29T00:54:30.083Z,16.53
2018-11-29T00:57:11.892Z,15.90
2018-11-29T00:59:53.321Z,16.37
2018-11-29T01:02:35.587Z,14.50
2018-11-29T01:05:16.974Z,15.20
2018-11-29T01:07:58.429Z,14.83
2018-11-29T01:10:40.035Z,15.47
2018-11-29T01:13:21.683Z,12.87
2018-11-29T01:16:04.961Z,14.57
2018-11-29T01:18:46.582Z,14.07
2018-11-29T01:21:27.980Z,12.97
2018-11-29T01:24:10.011Z,14.57
2018-11-29T01:26:51.985Z,14.23
2018-11-29T01:29:33.300Z,13.30
2018-11-29T01:32:14.789Z,14.47
2018-11-29T01:34:56.738Z,13.23
2018-11-29T01:37:41.586Z,13.17
2018-11-29T01:40:23.626Z,13.40
2018-11-29T01:43:04.884Z,12.90
2018-11-29T01:45:47.369Z,13.43
2018-11-29T01:48:28.652Z,13.17
2018-11-29T01:51:10.692Z,12.97
2018-11-29T01:53:51.977Z,13.27
2018-11-29T01:56:34.008Z,14.47
2018-11-29T01:59:15.170Z,15.03
2018-11-29T02:01:56.459Z,13.67
2018-11-29T02:04:37.679Z,14.53
2018-11-29T02:07:20.077Z,14.30
2018-11-29T02:10:06.553Z,13.40
2018-11-29T02:12:48.037Z,13.93
2018-11-29T02:15:29.524Z,14.60
2018-11-29T02:18:11.054Z,14.60
2018-11-29T02:20:52.884Z,13.60
2018-11-29T02:23:34.493Z,13.80
2018-11-29T02:26:15.654Z,14.40
2018-11-29T02:28:57.267Z,14.87
2018-11-29T02:31:39.580Z,14.73
2018-11-29T02:34:22.388Z,16.05
2018-11-29T02:37:03.751Z,15.17
2018-11-29T02:39:45.264Z,16.17
2018-11-29T02:42:27.057Z,14.73
2018-11-29T02:45:21.760Z,16.77
2018-11-29T02:48:02.928Z,15.83
2018-11-29T02:50:44.656Z,17.57
2018-11-29T02:53:27.034Z,16.07
2018-11-29T02:56:08.520Z,16.33
2018-11-29T02:58:49.834Z,16.47
2018-11-29T03:01:31.512Z,15.67
2018-11-29T03:04:12.746Z,16.60
2018-11-29T03:06:54.076Z,17.50
2018-11-29T03:09:36.076Z,15.50
2018-11-29T03:12:17.711Z,15.47
2018-11-29T03:14:59.228Z,15.83
2018-11-29T03:17:41.025Z,14.83
2018-11-29T03:20:23.143Z,15.60
2018-11-29T03:23:05.107Z,16.67
2018-11-29T03:25:46.930Z,16.43
2018-11-29T03:28:28.593Z,15.63
2018-11-29T03:31:10.442Z,16.17
2018-11-29T03:33:52.466Z,16.13
2018-11-29T03:36:33.667Z,16.10
2018-11-29T03:39:14.982Z,17.40
2018-11-29T03:41:56.639Z,16.60
2018-11-29T03:44:37.920Z,16.17
2018-11-29T03:47:19.208Z,17.17
2018-11-29T03:50:02.125Z,17.60
2018-11-29T03:52:43.770Z,17.60
2018-11-29T03:55:25.529Z,16.43
2018-11-29T03:58:08.457Z,16.97
2018-11-29T04:00:49.772Z,17.47
2018-11-29T04:03:31.473Z,17.07
2018-11-29T04:06:12.710Z,18.00
2018-11-29T04:08:54.091Z,17.77
2018-11-29T04:11:35.571Z,17.47
2018-11-29T04:14:17.063Z,17.77
2018-11-29T04:16:58.727Z,17.13
2018-11-29T04:19:40.623Z,18.50
2018-11-29T04:22:22.426Z,18.13
2018-11-29T04:25:03.779Z,16.83
2018-11-29T04:27:45.881Z,23.63
2018-11-29T04:30:27.443Z,18.03
2018-11-29T04:33:08.720Z,18.57
2018-11-29T04:35:49.993Z,18.43
2018-11-29T04:38:31.625Z,18.00
2018-11-29T04:41:13.258Z,17.73
2018-11-29T04:43:54.497Z,17.97
2018-11-29T04:46:43.639Z,17.50
2018-11-29T04:49:25.305Z,17.77
2018-11-29T04:52:06.596Z,17.40
2018-11-29T04:54:48.017Z,18.30
2018-11-29T04:57:29.917Z,16.83
2018-11-29T05:00:14.698Z,18.27
2018-11-29T05:02:56.079Z,18.07
2018-11-29T05:05:37.731Z,15.97
2018-11-29T05:08:19.107Z,16.17
2018-11-29T05:11:00.603Z,17.13
2018-11-29T05:13:41.676Z,17.70
2018-11-29T05:16:23.013Z,19.43
2018-11-29T05:19:04.963Z,18.13
2018-11-29T05:21:46.931Z,18.43
2018-11-29T05:24:28.601Z,19.37
2018-11-29T05:27:10.446Z,18.40
2018-11-29T05:29:52.227Z,18.43
2018-11-29T05:32:34.181Z,18.63
2018-11-29T05:35:15.992Z,18.83
2018-11-29T05:37:57.505Z,18.63
2018-11-29T05:40:39.672Z,19.50
2018-11-29T05:43:21.676Z,19.97
2018-11-29T05:46:03.624Z,18.23
2018-11-29T05:48:44.852Z,19.17
2018-11-29T05:51:26.790Z,20.20
2018-11-29T05:54:08.585Z,19.07
2018-11-29T05:56:50.875Z,19.90
2018-11-29T05:59:33.460Z,19.60
2018-11-29T06:02:14.820Z,18.07
2018-11-29T06:04:57.039Z,18.67
2018-11-29T06:07:38.379Z,18.40
2018-11-29T06:10:20.684Z,20.07
2018-11-29T06:13:02.786Z,19.63
2018-11-29T06:15:44.020Z,18.67
2018-11-29T06:18:25.637Z,20.47
2018-11-29T06:21:07.434Z,18.30
2018-11-29T06:23:49.054Z,18.80
2018-11-29T06:26:30.709Z,19.07
2018-11-29T06:29:11.913Z,19.10
2018-11-29T06:31:53.326Z,21.13
2018-11-29T06:34:35.746Z,19.17
2018-11-29T06:37:17.144Z,19.57
2018-11-29T06:39:58.795Z,19.63
2018-11-29T06:42:40.581Z,19.97
2018-11-29T06:45:23.096Z,18.30
2018-11-29T06:48:04.839Z,18.97
2018-11-29T06:50:46.543Z,18.40
2018-11-29T06:53:33.023Z,19.50
2018-11-29T06:56:14.667Z,18.90
2018-11-29T06:58:56.207Z,17.90
2018-11-29T07:01:38.052Z,18.60
2018-11-29T07:04:19.662Z,19.17
2018-11-29T07:07:01.464Z,19.23
2018-11-29T07:09:43.431Z,20.20
2018-11-29T07:12:24.764Z,20.87
2018-11-29T07:15:09.099Z,19.03
2018-11-29T07:17:50.717Z,20.57
2018-11-29T07:20:32.864Z,19.10
2018-11-29T07:23:15.066Z,18.83
2018-11-29T07:26:02.984Z,17.73
2018-11-29T07:28:44.341Z,19.90
2018-11-29T07:31:25.949Z,19.00
2018-11-29T07:34:08.509Z,19.60
2018-11-29T07:36:50.435Z,19.53
2018-11-29T07:39:31.642Z,19.23
2018-11-29T07:42:13.096Z,16.80
2018-11-29T07:44:54.790Z,18.60
2018-11-29T07:47:36.144Z,19.40
2018-11-29T07:50:25.460Z,19.00
2018-11-29T07:53:07.648Z,17.80
2018-11-29T07:55:49.513Z,17.30
2018-11-29T07:58:30.865Z,17.97
2018-11-29T08:01:12.384Z,17.77
2018-11-29T08:03:53.878Z,17.10
2018-11-29T08:06:35.556Z,18.77
2018-11-29T08:09:16.864Z,17.70
2018-11-29T08:11:58.284Z,18.67
2018-11-29T08:14:40.347Z,16.33
2018-11-29T08:17:22.191Z,17.23
2018-11-29T08:20:05.687Z,17.35
2018-11-29T08:22:47.850Z,17.70
2018-11-29T08:25:29.614Z,15.75
2018-11-29T08:28:11.953Z,17.10
2018-11-29T08:30:54.357Z,18.10
2018-11-29T08:33:36.130Z,18.98
2018-11-29T08:36:18.026Z,19.25
2018-11-29T08:39:00.363Z,19.45
2018-11-29T08:41:42.593Z,19.85
2018-11-29T08:44:25.113Z,19.85
2018-11-29T08:47:07.554Z,20.00
2018-11-29T08:49:49.785Z,19.35
2018-11-29T08:52:32.722Z,18.87
2018-11-29T08:55:16.020Z,18.85
2018-11-29T08:57:57.883Z,20.37
2018-11-29T09:00:39.718Z,19.45
2018-11-29T09:03:21.911Z,20.23
2018-11-29T09:06:03.691Z,19.80
2018-11-29T09:08:45.697Z,19.32
2018-11-29T09:11:28.283Z,19.82
2018-11-29T09:14:10.486Z,19.65
2018-11-29T09:16:52.204Z,19.75
2018-11-29T09:19:37.494Z,19.77
2018-11-29T09:22:17.927Z,19.15
2018-11-29T09:24:59.144Z,19.17
2018-11-29T09:27:41.103Z,19.73
2018-11-29T09:30:23.803Z,20.30
2018-11-29T09:33:06.164Z,20.08
2018-11-29T09:35:48.579Z,20.62
2018-11-29T09:38:30.695Z,19.00
2018-11-29T09:41:12.884Z,18.60
2018-11-29T09:43:55.747Z,17.92
2018-11-29T09:46:38.404Z,19.45
2018-11-29T09:49:20.507Z,18.10
2018-11-29T09:52:02.234Z,17.25
2018-11-29T09:54:43.967Z,18.23
2018-11-29T09:57:25.833Z,17.87
2018-11-29T10:00:40.872Z,18.42
2018-11-29T10:03:22.800Z,17.95
2018-11-29T10:06:05.649Z,18.80
2018-11-29T10:08:47.655Z,18.17
2018-11-29T10:11:29.837Z,18.27
2018-11-29T10:14:11.692Z,17.82
2018-11-29T10:16:53.913Z,18.23
2018-11-29T10:19:36.514Z,17.45
2018-11-29T10:22:18.270Z,19.23
2018-11-29T10:25:00.023Z,18.35
2018-11-29T10:27:45.600Z,18.60
2018-11-29T10:30:37.187Z,17.02
2018-11-29T10:33:19.634Z,17.23
2018-11-29T10:36:02.194Z,18.73
2018-11-29T10:38:44.144Z,18.30
2018-11-29T10:41:26.404Z,17.50
2018-11-29T10:44:09.603Z,18.42
2018-11-29T10:46:52.034Z,17.98
2018-11-29T10:49:33.930Z,18.23
2018-11-29T10:52:15.947Z,16.32
2018-11-29T10:54:58.407Z,18.10
2018-11-29T10:57:41.097Z,19.15
2018-11-29T11:00:30.193Z,17.95
2018-11-29T11:03:18.540Z,18.60
2018-11-29T11:06:00.191Z,17.20
2018-11-29T11:08:42.586Z,17.00
2018-11-29T11:11:24.474Z,18.70
2018-11-29T11:14:07.093Z,19.30
2018-11-29T11:16:49.278Z,17.50
2018-11-29T11:19:32.601Z,18.42
2018-11-29T11:22:14.374Z,19.48
2018-11-29T11:24:56.160Z,18.75
2018-11-29T11:27:38.265Z,17.80
2018-11-29T11:30:21.660Z,16.57
2018-11-29T11:33:03.485Z,17.37
2018-11-29T11:35:45.205Z,18.55
2018-11-29T11:38:28.139Z,18.90
2018-11-29T11:41:10.780Z,18.00
2018-11-29T11:43:53.294Z,18.57
2018-11-29T11:46:35.402Z,20.12
2018-11-29T11:49:17.656Z,20.80
2018-11-29T11:51:59.365Z,18.30
2018-11-29T11:54:41.161Z,16.40
2018-11-29T11:57:23.554Z,18.35
2018-11-29T12:00:10.387Z,16.95
2018-11-29T12:03:01.483Z,17.52
2018-11-29T12:05:43.642Z,16.62
2018-11-29T12:08:25.395Z,16.17
2018-11-29T12:11:07.807Z,17.05
2018-11-29T12:13:49.981Z,16.75
2018-11-29T12:16:32.354Z,15.88
2018-11-29T12:19:14.497Z,16.75
2018-11-29T12:21:56.692Z,17.17
2018-11-29T12:24:38.621Z,16.73
2018-11-29T12:27:20.920Z,15.90
2018-11-29T12:30:03.020Z,17.73
2018-11-29T12:32:45.003Z,17.92
2018-11-29T12:35:27.265Z,16.23
2018-11-29T12:38:10.126Z,18.15
2018-11-29T12:40:52.443Z,16.82
2018-11-29T12:43:36.199Z,16.67
2018-11-29T12:46:18.291Z,18.45
2018-11-29T12:49:00.757Z,16.48
2018-11-29T12:51:42.636Z,17.17
2018-11-29T12:54:24.478Z,17.30
2018-11-29T12:57:06.829Z,16.77
2018-11-29T12:59:48.940Z,17.40
2018-11-29T13:02:31.676Z,17.35
2018-11-29T13:05:13.659Z,18.87
2018-11-29T13:07:55.952Z,17.80
2018-11-29T13:10:38.701Z,17.77
2018-11-29T13:13:21.779Z,17.73
2018-11-29T13:16:03.579Z,18.15
2018-11-29T13:18:46.265Z,18.57
2018-11-29T13:21:28.910Z,19.30
2018-11-29T13:24:10.987Z,17.25
2018-11-29T13:26:53.422Z,18.05
2018-11-29T13:29:35.191Z,18.25
2018-11-29T13:32:17.690Z,18.67
2018-11-29T13:34:59.748Z,19.27
2018-11-29T13:37:41.774Z,17.62
2018-11-29T13:40:23.643Z,17.40
2018-11-29T13:43:07.229Z,18.15
2018-11-29T13:45:50.272Z,18.00
2018-11-29T13:48:32.265Z,19.12
2018-11-29T13:51:14.554Z,18.80
2018-11-29T13:53:56.921Z,18.48
2018-11-29T13:56:38.642Z,18.12
2018-11-29T13:59:20.915Z,19.23
2018-11-29T14:02:03.015Z,18.87
2018-11-29T14:04:44.809Z,18.55
2018-11-29T14:07:26.882Z,18.95
2018-11-29T14:10:12.556Z,19.20
2018-11-29T14:12:58.152Z,17.52
2018-11-29T14:15:40.145Z,18.15
2018-11-29T14:18:22.568Z,17.90
2018-11-29T14:21:05.195Z,19.23
2018-11-29T14:23:47.319Z,18.27
2018-11-29T14:26:29.429Z,18.25
2018-11-29T14:29:12.431Z,17.50
2018-11-29T14:31:55.115Z,17.05
2018-11-29T14:34:38.322Z,17.45
2018-11-29T14:37:20.251Z,17.05
2018-11-29T14:40:02.391Z,17.25
2018-11-29T14:42:45.348Z,16.87
2018-11-29T14:45:28.000Z,17.62
2018-11-29T14:48:09.870Z,16.85
2018-11-29T14:50:52.573Z,16.20
2018-11-29T14:53:34.477Z,16.25
2018-11-29T14:56:16.431Z,17.25
2018-11-29T14:58:58.713Z,16.90
2018-11-29T15:01:40.944Z,16.12
2018-11-29T15:04:23.580Z,15.95
2018-11-29T15:07:06.304Z,17.02
2018-11-29T15:09:48.525Z,16.75
2018-11-29T15:12:30.443Z,14.75
2018-11-29T15:15:13.515Z,14.87
2018-11-29T15:17:56.967Z,16.17
2018-11-29T15:20:44.072Z,17.65
2018-11-29T15:23:25.951Z,14.55
2018-11-29T15:26:07.872Z,15.03
2018-11-29T15:28:52.476Z,15.35
2018-11-29T15:31:34.852Z,13.80
2018-11-29T15:34:16.951Z,14.20
2018-11-29T15:36:59.031Z,12.80
2018-11-29T15:39:40.748Z,12.43
2018-11-29T15:42:23.171Z,12.73
2018-11-29T15:45:08.533Z,13.78
2018-11-29T15:47:50.666Z,13.45
2018-11-29T15:50:33.824Z,13.25
2018-11-29T15:53:15.940Z,12.23
2018-11-29T15:55:57.952Z,13.00
2018-11-29T15:58:39.962Z,12.05
2018-11-29T16:01:22.372Z,11.28
2018-11-29T16:04:04.259Z,11.50
2018-11-29T16:06:46.299Z,10.93
2018-11-29T16:09:28.546Z,11.03
2018-11-29T16:12:10.711Z,11.45
2018-11-29T16:14:53.399Z,10.60
2018-11-29T16:17:35.195Z,10.60
2018-11-29T16:20:30.996Z,10.58
2018-11-29T16:23:13.199Z,10.75
2018-11-29T16:25:55.015Z,10.82
2018-11-29T16:28:37.147Z,9.65
2018-11-29T16:31:19.527Z,9.83
2018-11-29T16:34:02.912Z,10.93
2018-11-29T16:36:45.375Z,9.43
2018-11-29T16:39:28.535Z,10.58
2018-11-29T16:42:11.732Z,11.25
2018-11-29T16:44:53.754Z,8.28
2018-11-29T16:47:35.658Z,10.10
2018-11-29T16:50:18.507Z,10.50
2018-11-29T16:53:01.204Z,9.55
2018-11-29T16:55:45.954Z,10.23
2018-11-29T16:58:30.744Z,9.63
2018-11-29T17:01:12.812Z,10.65
2018-11-29T17:03:55.532Z,9.68
2018-11-29T17:06:37.688Z,9.60
2018-11-29T17:09:19.457Z,10.53
2018-11-29T17:12:01.886Z,9.73
2018-11-29T17:14:43.683Z,9.88
2018-11-29T17:17:26.137Z,9.43
2018-11-29T17:20:11.633Z,10.32
2018-11-29T17:23:07.542Z,9.53
2018-11-29T17:25:49.810Z,11.05
2018-11-29T17:28:31.915Z,10.88
2018-11-29T17:31:16.015Z,10.95
2018-11-29T17:33:57.686Z,10.35
2018-11-29T17:36:39.815Z,11.20
2018-11-29T17:39:22.218Z,11.45
2018-11-29T17:42:04.359Z,10.78
2018-11-29T17:44:46.113Z,10.53
2018-11-29T17:47:28.467Z,11.68
2018-11-29T17:50:46.759Z,14.67
2018-11-29T17:53:28.886Z,12.85
2018-11-29T17:56:13.619Z,11.83
2018-11-29T17:58:55.629Z,11.05
2018-11-29T18:01:37.726Z,12.55
2018-11-29T18:04:19.931Z,13.65
2018-11-29T18:07:03.774Z,12.53
2018-11-29T18:09:47.168Z,12.98
2018-11-29T18:12:29.476Z,12.58
2018-11-29T18:15:28.855Z,14.30
2018-11-29T18:18:11.021Z,13.88
2018-11-29T18:20:53.726Z,13.25
2018-11-29T18:23:36.810Z,14.53
2018-11-29T18:26:18.583Z,15.40
2018-11-29T18:29:00.328Z,14.55
2018-11-29T18:31:42.597Z,15.03
2018-11-29T18:34:25.195Z,13.58
2018-11-29T18:37:07.522Z,13.50
2018-11-29T18:39:50.607Z,14.60
2018-11-29T18:42:33.471Z,15.10
2018-11-29T18:45:18.454Z,14.83
2018-11-29T18:48:01.633Z,13.65
2018-11-29T18:50:44.796Z,14.37
2018-11-29T18:53:29.262Z,14.07
2018-11-29T18:56:11.358Z,15.58
2018-11-29T18:58:55.202Z,14.58
2018-11-29T19:01:36.968Z,14.70
2018-11-29T19:04:19.668Z,14.70
2018-11-29T19:07:01.119Z,15.30
2018-11-29T19:09:42.719Z,12.78
2018-11-29T19:12:25.150Z,14.10
2018-11-29T19:15:12.457Z,13.93
2018-11-29T19:17:55.510Z,14.28
2018-11-29T19:20:38.641Z,14.53
2018-11-29T19:23:20.585Z,14.38
2018-11-29T19:26:05.321Z,13.10
2018-11-29T19:28:47.188Z,15.00
2018-11-29T19:31:29.624Z,15.58
2018-11-29T19:34:11.790Z,15.38
2018-11-29T19:36:55.424Z,14.68
2018-11-29T19:39:39.421Z,13.50
2018-11-29T19:42:21.771Z,14.43
2018-11-29T19:45:05.398Z,15.23
2018-11-29T19:47:47.823Z,13.55
2018-11-29T19:50:29.597Z,13.22
2018-11-29T19:53:18.034Z,14.33
2018-11-29T19:56:02.877Z,11.85
2018-11-29T19:58:44.609Z,13.33
2018-11-29T20:01:26.433Z,13.28
2018-11-29T20:04:10.681Z,13.33
2018-11-29T20:06:52.380Z,12.20
2018-11-29T20:09:33.656Z,12.63
2018-11-29T20:12:15.929Z,12.33
2018-11-29T20:14:57.447Z,12.83
2018-11-29T20:17:39.137Z,12.27
2018-11-29T20:20:20.933Z,12.58
2018-11-29T20:23:02.638Z,12.27
2018-11-29T20:25:47.008Z,12.27
2018-11-29T20:28:30.543Z,11.13
2018-11-29T20:31:13.648Z,11.87
2018-11-29T20:33:56.347Z,11.70
2018-11-29T20:36:40.320Z,12.17
2018-11-29T20:39:23.032Z,11.83
2018-11-29T20:42:05.117Z,11.80
2018-11-29T20:44:46.845Z,11.77
2018-11-29T20:47:28.635Z,11.23
2018-11-29T20:50:14.800Z,11.93
2018-11-29T20:52:57.311Z,11.20
2018-11-29T20:55:39.074Z,11.93
2018-11-29T20:58:20.421Z,11.57
2018-11-29T21:01:01.931Z,10.63
2018-11-29T21:03:44.369Z,11.03
2018-11-29T21:06:26.693Z,10.45
2018-11-29T21:09:11.849Z,10.93
2018-11-29T21:11:58.247Z,10.08
2018-11-29T21:14:44.346Z,10.67
2018-11-29T21:17:26.032Z,10.57
2018-11-29T21:20:11.290Z,10.73
2018-11-29T21:22:54.723Z,9.67
2018-11-29T21:25:36.535Z,9.97
2018-11-29T21:28:19.206Z,9.93
2018-11-29T21:31:00.632Z,10.30
2018-11-29T21:33:41.912Z,10.97
2018-11-29T21:36:24.799Z,10.47
2018-11-29T21:39:07.405Z,9.50
2018-11-29T21:41:49.447Z,10.60
2018-11-29T21:44:30.620Z,10.90
2018-11-29T21:47:12.313Z,9.87
2018-11-29T21:49:54.050Z,10.80
2018-11-29T21:52:35.175Z,9.67
2018-11-29T21:55:16.626Z,9.13
2018-11-29T21:57:58.357Z,10.27
2018-11-29T22:00:39.780Z,10.43
2018-11-29T22:03:21.778Z,8.93
2018-11-29T22:06:03.431Z,9.40
2018-11-29T22:08:45.705Z,10.10
2018-11-29T22:11:29.309Z,11.03
2018-11-29T22:14:10.879Z,10.20
2018-11-29T22:16:52.952Z,9.40
2018-11-29T22:19:34.182Z,10.17
2018-11-29T22:22:16.068Z,10.10
2018-11-29T22:24:57.439Z,9.23
2018-11-29T22:27:39.381Z,10.17
2018-11-29T22:30:20.966Z,10.43
2018-11-29T22:33:02.641Z,10.07
2018-11-29T22:35:44.358Z,10.30
2018-11-29T22:38:26.059Z,10.80
2018-11-29T22:41:07.808Z,10.60
2018-11-29T22:43:50.237Z,8.70
2018-11-29T22:46:31.665Z,9.47
2018-11-29T22:49:13.004Z,10.57
2018-11-29T22:51:54.526Z,10.77
2018-11-29T22:54:36.372Z,10.40
2018-11-29T22:57:18.228Z,10.17
2018-11-29T23:00:01.145Z,10.83
2018-11-29T23:02:42.446Z,10.97
2018-11-29T23:05:27.974Z,10.13
2018-11-29T23:08:09.955Z,10.50
2018-11-29T23:10:51.515Z,10.77
2018-11-29T23:13:32.878Z,10.40
2018-11-29T23:16:14.449Z,10.67
2018-11-29T23:18:56.163Z,10.30
2018-11-29T23:21:37.800Z,11.87
2018-11-29T23:24:20.255Z,9.97
2018-11-29T23:27:02.064Z,10.33
2018-11-29T23:29:43.427Z,11.53
2018-11-29T23:32:24.642Z,10.93
2018-11-29T23:35:06.358Z,11.50
2018-11-29T23:37:47.848Z,10.77
2018-11-29T23:40:29.840Z,11.27
2018-11-29T23:43:11.810Z,10.43
2018-11-29T23:45:53.206Z,12.13
2018-11-29T23:48:34.405Z,11.33
2018-11-29T23:51:16.089Z,11.30
2018-11-29T23:53:57.518Z,11.63
2018-11-29T23:56:38.673Z,11.93
2018-11-29T23:59:20.802Z,12.13
